createdAt,value
2023-04-18T00:00:10.841Z,102513.34
2023-04-18T00:02:44.060Z,102519.41
2023-04-18T00:05:12.492Z,102516.66
2023-04-18T00:07:39.481Z,102524.00
2023-04-18T00:10:07.232Z,102521.00
2023-04-18T00:12:34.388Z,102521.88
2023-04-18T00:15:03.103Z,102518.41
2023-04-18T00:17:31.806Z,102517.25
2023-04-18T00:19:58.844Z,102525.91
2023-04-18T00:22:25.685Z,102519.00
2023-04-18T00:24:52.454Z,102521.00
2023-04-18T00:27:19.580Z,102527.00
2023-04-18T00:29:47.123Z,102528.50
2023-04-18T00:32:16.493Z,102519.31
2023-04-18T00:34:43.151Z,102526.34
2023-04-18T00:37:09.887Z,102525.31
2023-04-18T00:39:36.811Z,102523.44
2023-04-18T00:42:04.168Z,102521.19
2023-04-18T00:44:31.822Z,102522.47
2023-04-18T00:46:58.859Z,102529.66
2023-04-18T00:49:26.970Z,102533.88
2023-04-18T00:51:55.935Z,102530.44
2023-04-18T00:54:24.548Z,102526.03
2023-04-18T00:56:51.571Z,102527.78
2023-04-18T00:59:19.127Z,102527.00
2023-04-18T01:01:46.203Z,102532.44
2023-04-18T01:04:13.495Z,102534.47
2023-04-18T01:06:41.225Z,102542.59
2023-04-18T01:09:08.097Z,102534.28
2023-04-18T01:11:36.016Z,102542.53
2023-04-18T01:14:04.610Z,102543.75
2023-04-18T01:16:38.841Z,102544.75
2023-04-18T01:19:06.046Z,102545.69
2023-04-18T01:21:37.438Z,102541.88
2023-04-18T01:24:08.129Z,102541.19
2023-04-18T01:26:34.943Z,102541.13
2023-04-18T01:29:05.006Z,102540.97
2023-04-18T01:31:35.667Z,102545.06
2023-04-18T01:34:03.598Z,102543.19
2023-04-18T01:36:30.567Z,102548.66
2023-04-18T01:38:57.796Z,102548.59
2023-04-18T01:41:29.792Z,102549.22
2023-04-18T01:43:56.634Z,102551.19
2023-04-18T01:46:23.351Z,102551.06
2023-04-18T01:48:50.299Z,102548.59
2023-04-18T01:51:20.222Z,102549.19
2023-04-18T01:53:50.207Z,102550.97
2023-04-18T01:56:17.115Z,102551.78
2023-04-18T01:58:44.061Z,102552.63
2023-04-18T02:01:12.557Z,102559.03
2023-04-18T02:03:40.125Z,102551.94
2023-04-18T02:06:07.454Z,102557.94
2023-04-18T02:08:35.976Z,102562.56
2023-04-18T02:11:05.966Z,102563.97
2023-04-18T02:13:32.957Z,102568.28
2023-04-18T02:15:59.849Z,102567.28
2023-04-18T02:18:29.309Z,102566.72
2023-04-18T02:20:56.578Z,102570.72
2023-04-18T02:23:23.316Z,102579.03
2023-04-18T02:25:50.848Z,102572.75
2023-04-18T02:28:20.169Z,102581.38
2023-04-18T02:30:46.828Z,102587.28
2023-04-18T02:33:13.604Z,102574.97
2023-04-18T02:35:40.743Z,102580.56
2023-04-18T02:38:09.013Z,102580.75
2023-04-18T02:40:35.721Z,102571.00
2023-04-18T02:43:04.990Z,102580.09
2023-04-18T02:45:32.804Z,102574.69
2023-04-18T02:48:01.429Z,102569.88
2023-04-18T02:50:29.343Z,102578.31
2023-04-18T02:52:57.318Z,102574.84
2023-04-18T02:55:30.426Z,102572.81
2023-04-18T02:57:59.696Z,102573.06
2023-04-18T03:00:56.506Z,102576.44
2023-04-18T03:03:41.695Z,102571.78
2023-04-18T03:06:48.030Z,102584.16
2023-04-18T03:09:16.272Z,102581.88
2023-04-18T03:11:47.732Z,102577.91
2023-04-18T03:14:18.023Z,102585.09
2023-04-18T03:16:53.888Z,102582.69
2023-04-18T03:19:26.537Z,102586.03
2023-04-18T03:21:56.126Z,102587.69
2023-04-18T03:24:22.830Z,102583.00
2023-04-18T03:26:52.200Z,102589.84
2023-04-18T03:29:22.338Z,102595.91
2023-04-18T03:31:49.214Z,102597.25
2023-04-18T03:34:16.062Z,102598.63
2023-04-18T03:36:45.370Z,102601.09
2023-04-18T03:39:15.126Z,102599.34
2023-04-18T03:41:41.859Z,102601.84
2023-04-18T03:44:11.205Z,102604.38
2023-04-18T03:46:40.747Z,102602.84
2023-04-18T03:49:08.954Z,102607.16
2023-04-18T03:51:44.341Z,102609.59
2023-04-18T03:54:11.253Z,102609.75
2023-04-18T03:56:41.721Z,102613.72
2023-04-18T03:59:11.153Z,102621.75
2023-04-18T04:01:39.138Z,102615.50
2023-04-18T04:04:06.239Z,102622.56
2023-04-18T04:06:34.822Z,102618.81
2023-04-18T04:09:01.587Z,102625.44
2023-04-18T04:11:29.345Z,102630.59
2023-04-18T04:13:56.054Z,102633.03
2023-04-18T04:16:28.346Z,102637.66
2023-04-18T04:18:55.914Z,102641.16
2023-04-18T04:21:27.207Z,102641.69
2023-04-18T04:23:53.933Z,102640.22
2023-04-18T04:26:27.967Z,102641.38
2023-04-18T04:29:03.700Z,102642.25
2023-04-18T04:31:32.497Z,102644.09
2023-04-18T04:33:59.393Z,102646.78
2023-04-18T04:36:28.518Z,102654.75
2023-04-18T04:38:58.398Z,102644.97
2023-04-18T04:41:32.932Z,102644.31
2023-04-18T04:44:04.104Z,102642.81
2023-04-18T04:46:36.843Z,102642.38
2023-04-18T04:49:07.380Z,102646.50
2023-04-18T04:51:34.322Z,102643.84
2023-04-18T04:54:01.781Z,102648.06
2023-04-18T04:56:28.712Z,102645.69
2023-04-18T04:58:58.111Z,102651.13
2023-04-18T05:01:31.205Z,102661.50
2023-04-18T05:03:58.908Z,102656.78
2023-04-18T05:06:25.859Z,102651.22
2023-04-18T05:08:52.590Z,102650.22
2023-04-18T05:11:19.251Z,102652.88
2023-04-18T05:13:45.926Z,102661.50
2023-04-18T05:16:19.740Z,102659.63
2023-04-18T05:18:46.476Z,102657.94
2023-04-18T05:21:14.271Z,102659.84
2023-04-18T05:23:40.963Z,102664.69
2023-04-18T05:26:07.660Z,102659.56
2023-04-18T05:28:34.510Z,102661.09
2023-04-18T05:31:01.328Z,102662.06
2023-04-18T05:33:31.833Z,102665.53
2023-04-18T05:35:59.455Z,102670.00
2023-04-18T05:38:26.313Z,102672.59
2023-04-18T05:40:55.530Z,102679.56
2023-04-18T05:43:23.281Z,102675.09
2023-04-18T05:45:52.345Z,102681.22
2023-04-18T05:48:19.530Z,102676.91
2023-04-18T05:50:46.264Z,102668.13
2023-04-18T05:53:13.041Z,102678.66
2023-04-18T05:55:41.028Z,102677.56
2023-04-18T05:58:07.921Z,102672.38
2023-04-18T06:00:35.393Z,102677.47
2023-04-18T06:03:02.612Z,102673.75
2023-04-18T06:05:29.881Z,102680.63
2023-04-18T06:07:56.896Z,102681.00
2023-04-18T06:10:23.742Z,102688.69
2023-04-18T06:12:50.628Z,102693.31
2023-04-18T06:15:17.434Z,102692.53
2023-04-18T06:17:44.829Z,102687.84
2023-04-18T06:20:11.806Z,102694.91
2023-04-18T06:22:39.623Z,102698.28
2023-04-18T06:25:08.754Z,102703.81
2023-04-18T06:27:38.979Z,102708.84
2023-04-18T06:30:07.747Z,102704.31
2023-04-18T06:32:34.659Z,102701.50
2023-04-18T06:35:01.525Z,102704.09
2023-04-18T06:37:28.930Z,102697.91
2023-04-18T06:39:55.679Z,102700.44
2023-04-18T06:42:22.741Z,102708.19
2023-04-18T06:44:50.214Z,102698.34
2023-04-18T06:47:17.074Z,102703.53
2023-04-18T06:49:43.797Z,102702.38
2023-04-18T06:52:10.711Z,102700.34
2023-04-18T06:54:37.461Z,102695.81
2023-04-18T06:57:04.231Z,102704.53
2023-04-18T06:59:31.045Z,102697.47
2023-04-18T07:01:57.848Z,102705.38
2023-04-18T07:04:24.894Z,102704.53
2023-04-18T07:06:52.001Z,102707.09
2023-04-18T07:09:18.957Z,102704.53
2023-04-18T07:11:45.691Z,102710.72
2023-04-18T07:14:12.672Z,102709.63
2023-04-18T07:16:41.108Z,102707.53
2023-04-18T07:19:10.133Z,102708.25
2023-04-18T07:21:37.730Z,102717.94
2023-04-18T07:24:04.650Z,102718.81
2023-04-18T07:26:31.868Z,102721.03
2023-04-18T07:28:58.552Z,102716.63
2023-04-18T07:31:28.697Z,102721.84
2023-04-18T07:33:55.614Z,102725.13
2023-04-18T07:36:22.421Z,102721.50
2023-04-18T07:38:49.478Z,102724.34
2023-04-18T07:41:16.207Z,102718.41
2023-04-18T07:43:44.902Z,102726.72
2023-04-18T07:46:11.714Z,102714.91
2023-04-18T07:48:38.457Z,102718.88
2023-04-18T07:51:05.260Z,102711.97
2023-04-18T07:53:31.949Z,102715.06
2023-04-18T07:55:58.574Z,102713.59
2023-04-18T07:58:25.400Z,102717.75
2023-04-18T08:00:52.073Z,102712.97
2023-04-18T08:03:18.984Z,102706.16
2023-04-18T08:05:45.944Z,102713.22
2023-04-18T08:08:12.881Z,102704.56
2023-04-18T08:10:39.686Z,102707.78
2023-04-18T08:13:07.020Z,102709.97
2023-04-18T08:15:33.844Z,102702.91
2023-04-18T08:18:01.091Z,102705.53
2023-04-18T08:20:28.101Z,102703.03
2023-04-18T08:25:24.616Z,102713.59
2023-04-18T08:27:51.320Z,102705.59
2023-04-18T08:30:18.173Z,102705.16
2023-04-18T08:32:44.917Z,102713.97
2023-04-18T08:35:11.783Z,102708.25
2023-04-18T08:37:39.046Z,102710.66
2023-04-18T08:40:07.381Z,102709.09
2023-04-18T08:42:52.721Z,102703.25
2023-04-18T08:45:20.140Z,102709.81
2023-04-18T08:47:47.061Z,102714.34
2023-04-18T08:50:14.004Z,102715.28
2023-04-18T08:52:45.559Z,102708.56
2023-04-18T08:55:12.283Z,102712.16
2023-04-18T08:57:39.800Z,102712.22
2023-04-18T09:00:10.506Z,102716.28
2023-04-18T09:02:42.502Z,102716.09
2023-04-18T09:05:21.128Z,102710.22
2023-04-18T09:07:54.143Z,102725.50
2023-04-18T09:10:31.612Z,102729.69
2023-04-18T09:13:00.222Z,102730.13
2023-04-18T09:15:29.187Z,102725.28
2023-04-18T09:18:10.453Z,102731.13
2023-04-18T09:20:41.289Z,102735.75
2023-04-18T09:23:11.047Z,102741.47
2023-04-18T09:25:48.854Z,102736.78
2023-04-18T09:28:28.798Z,102742.72
2023-04-18T09:30:57.867Z,102737.44
2023-04-18T09:33:28.423Z,102733.66
2023-04-18T09:35:57.391Z,102735.91
2023-04-18T09:38:42.339Z,102739.06
2023-04-18T09:41:13.000Z,102730.63
2023-04-18T09:43:39.769Z,102744.34
2023-04-18T09:46:11.922Z,102740.88
2023-04-18T09:48:42.730Z,102742.75
2023-04-18T09:51:11.607Z,102733.53
2023-04-18T09:53:45.210Z,102749.53
2023-04-18T09:56:33.304Z,102749.97
2023-04-18T09:59:10.042Z,102740.22
2023-04-18T10:01:37.268Z,102750.38
2023-04-18T10:04:06.852Z,102739.56
2023-04-18T10:06:35.013Z,102741.56
2023-04-18T10:09:04.296Z,102743.84
2023-04-18T10:11:32.268Z,102743.59
2023-04-18T10:14:05.421Z,102738.56
2023-04-18T10:16:34.191Z,102735.28
2023-04-18T10:19:25.859Z,102729.94
2023-04-18T10:21:57.514Z,102735.75
2023-04-18T10:24:50.195Z,102727.78
2023-04-18T10:27:17.909Z,102728.69
2023-04-18T10:29:49.357Z,102730.13
2023-04-18T10:32:18.263Z,102724.72
2023-04-18T10:34:46.729Z,102721.00
2023-04-18T10:37:13.588Z,102724.19
2023-04-18T10:40:06.837Z,102719.84
2023-04-18T10:42:48.519Z,102730.50
2023-04-18T10:45:23.457Z,102727.69
2023-04-18T10:47:51.603Z,102731.38
2023-04-18T10:50:18.415Z,102733.75
2023-04-18T10:52:45.210Z,102731.78
2023-04-18T10:55:24.312Z,102735.88
2023-04-18T10:57:51.585Z,102742.47
2023-04-18T11:00:21.723Z,102744.38
2023-04-18T11:02:51.576Z,102739.59
2023-04-18T11:05:23.898Z,102739.97
2023-04-18T11:07:50.870Z,102750.22
2023-04-18T11:10:26.350Z,102740.66
2023-04-18T11:12:54.731Z,102745.69
2023-04-18T11:15:25.420Z,102748.00
2023-04-18T11:17:58.071Z,102756.50
2023-04-18T11:20:25.689Z,102756.00
2023-04-18T11:22:54.421Z,102756.50
2023-04-18T11:25:25.346Z,102762.91
2023-04-18T11:27:52.105Z,102763.88
2023-04-18T11:30:19.220Z,102759.63
2023-04-18T11:32:46.312Z,102761.03
2023-04-18T11:35:15.791Z,102762.47
2023-04-18T11:37:45.494Z,102759.81
2023-04-18T11:40:14.329Z,102755.34
2023-04-18T11:42:41.975Z,102757.13
2023-04-18T11:45:15.351Z,102761.25
2023-04-18T11:47:43.300Z,102748.66
2023-04-18T11:50:12.198Z,102753.63
2023-04-18T11:52:41.472Z,102751.09
2023-04-18T11:55:18.548Z,102750.41
2023-04-18T11:57:52.703Z,102752.75
2023-04-18T12:00:34.753Z,102746.34
2023-04-18T12:03:04.609Z,102742.94
2023-04-18T12:05:33.792Z,102748.34
2023-04-18T12:08:13.919Z,102741.50
2023-04-18T12:10:48.408Z,102740.00
2023-04-18T12:13:15.233Z,102751.09
2023-04-18T12:15:44.689Z,102741.91
2023-04-18T12:18:13.180Z,102749.31
2023-04-18T12:20:47.356Z,102744.31
2023-04-18T12:23:45.992Z,102742.44
2023-04-18T12:26:15.786Z,102745.50
2023-04-18T12:28:45.658Z,102737.13
2023-04-18T12:31:12.885Z,102742.41
2023-04-18T12:33:39.698Z,102739.38
2023-04-18T12:36:08.442Z,102738.28
2023-04-18T12:38:36.019Z,102745.13
2023-04-18T12:41:03.164Z,102738.03
2023-04-18T12:43:29.993Z,102748.47
2023-04-18T12:45:56.806Z,102745.69
2023-04-18T12:48:23.585Z,102747.63
2023-04-18T12:50:50.318Z,102741.53
2023-04-18T12:53:17.229Z,102752.09
2023-04-18T12:55:43.987Z,102744.25
2023-04-18T12:58:10.708Z,102755.19
2023-04-18T13:00:37.529Z,102754.78
2023-04-18T13:03:04.890Z,102756.41
2023-04-18T13:05:34.065Z,102762.81
2023-04-18T13:10:31.551Z,102766.63
2023-04-18T13:12:58.447Z,102754.88
2023-04-18T13:15:26.150Z,102757.63
2023-04-18T13:17:53.252Z,102755.59
2023-04-18T13:20:20.064Z,102759.16
2023-04-18T13:22:46.761Z,102753.00
2023-04-18T13:25:13.506Z,102757.34
2023-04-18T13:27:42.098Z,102756.50
2023-04-18T13:30:11.032Z,102756.75
2023-04-18T13:32:39.259Z,102756.69
2023-04-18T13:35:10.504Z,102753.28
2023-04-18T13:37:38.102Z,102746.16
2023-04-18T13:40:06.496Z,102743.56
2023-04-18T13:42:37.516Z,102746.66
2023-04-18T13:45:04.593Z,102749.00
2023-04-18T13:47:31.400Z,102752.91
2023-04-18T13:49:58.387Z,102744.34
2023-04-18T13:52:25.970Z,102734.22
2023-04-18T13:54:53.191Z,102746.03
2023-04-18T13:57:20.155Z,102741.28
2023-04-18T13:59:47.458Z,102744.75
2023-04-18T14:02:14.383Z,102737.06
2023-04-18T14:04:44.169Z,102740.53
2023-04-18T14:07:11.007Z,102737.81
2023-04-18T14:09:40.668Z,102728.56
2023-04-18T14:12:07.583Z,102736.69
2023-04-18T14:14:34.260Z,102742.09
2023-04-18T14:17:00.954Z,102743.50
2023-04-18T14:19:27.694Z,102746.69
2023-04-18T14:21:54.893Z,102740.66
2023-04-18T14:24:21.609Z,102740.63
2023-04-18T14:26:53.034Z,102734.78
2023-04-18T14:29:19.737Z,102732.78
2023-04-18T14:31:46.632Z,102734.16
2023-04-18T14:34:13.476Z,102732.09
2023-04-18T14:36:40.250Z,102739.41
2023-04-18T14:39:07.201Z,102729.44
2023-04-18T14:41:35.955Z,102730.59
2023-04-18T14:44:04.050Z,102729.63
2023-04-18T14:46:31.008Z,102729.97
2023-04-18T14:48:57.970Z,102732.75
2023-04-18T14:51:24.716Z,102720.81
2023-04-18T14:53:51.466Z,102726.28
2023-04-18T14:56:21.078Z,102734.16
2023-04-18T14:58:48.048Z,102722.91
2023-04-18T15:01:14.827Z,102727.59
2023-04-18T15:03:41.717Z,102725.03
2023-04-18T15:06:08.793Z,102728.38
2023-04-18T15:08:36.038Z,102722.94
2023-04-18T15:11:09.491Z,102720.25
2023-04-18T15:13:36.421Z,102722.16
2023-04-18T15:16:03.175Z,102717.63
2023-04-18T15:18:30.375Z,102719.53
2023-04-18T15:21:00.120Z,102713.66
2023-04-18T15:23:27.560Z,102712.59
2023-04-18T15:25:54.243Z,102724.81
2023-04-18T15:28:21.110Z,102718.22
2023-04-18T15:30:47.774Z,102722.63
2023-04-18T15:33:15.661Z,102714.41
2023-04-18T15:35:42.534Z,102713.81
2023-04-18T15:38:09.281Z,102716.78
2023-04-18T15:40:36.580Z,102711.91
2023-04-18T15:43:04.136Z,102711.63
2023-04-18T15:45:31.309Z,102715.16
2023-04-18T15:47:58.443Z,102715.41
2023-04-18T15:50:25.765Z,102704.91
2023-04-18T15:52:52.543Z,102712.34
2023-04-18T15:55:19.277Z,102713.25
2023-04-18T15:57:46.431Z,102723.69
2023-04-18T16:00:17.806Z,102711.66
2023-04-18T16:02:45.231Z,102709.91
2023-04-18T16:05:15.482Z,102708.38
2023-04-18T16:07:42.929Z,102703.91
2023-04-18T16:10:11.003Z,102707.28
2023-04-18T16:12:39.338Z,102712.63
2023-04-18T16:15:08.586Z,102705.47
2023-04-18T16:17:38.977Z,102701.41
2023-04-18T16:20:08.204Z,102705.28
2023-04-18T16:22:35.037Z,102704.41
2023-04-18T16:25:01.863Z,102704.28
2023-04-18T16:27:28.573Z,102699.34
2023-04-18T16:29:55.843Z,102692.91
2023-04-18T16:32:22.683Z,102690.06
2023-04-18T16:34:49.878Z,102694.50
2023-04-18T16:37:16.563Z,102693.75
2023-04-18T16:39:43.564Z,102695.41
2023-04-18T16:42:10.261Z,102693.13
2023-04-18T16:44:36.980Z,102693.13
2023-04-18T16:47:05.132Z,102699.59
2023-04-18T16:49:31.956Z,102694.91
2023-04-18T16:51:58.580Z,102697.41
2023-04-18T16:54:25.418Z,102693.38
2023-04-18T16:56:52.138Z,102696.53
2023-04-18T16:59:18.912Z,102690.25
2023-04-18T17:01:45.739Z,102696.38
2023-04-18T17:04:12.870Z,102682.97
2023-04-18T17:06:42.174Z,102692.63
2023-04-18T17:09:09.088Z,102693.94
2023-04-18T17:11:39.637Z,102693.59
2023-04-18T17:14:08.212Z,102692.63
2023-04-18T17:16:40.462Z,102694.63
2023-04-18T17:19:07.648Z,102697.03
2023-04-18T17:21:36.539Z,102694.53
2023-04-18T17:24:06.756Z,102693.47
2023-04-18T17:26:34.714Z,102692.72
2023-04-18T17:29:03.202Z,102693.28
2023-04-18T17:31:33.442Z,102688.59
2023-04-18T17:34:00.711Z,102693.47
2023-04-18T17:36:27.812Z,102701.41
2023-04-18T17:38:54.746Z,102708.00
2023-04-18T17:41:21.938Z,102709.69
2023-04-18T17:43:50.839Z,102707.66
2023-04-18T17:46:17.769Z,102719.06
2023-04-18T17:48:44.466Z,102706.72
2023-04-18T17:51:11.171Z,102706.06
2023-04-18T17:53:38.170Z,102704.78
2023-04-18T17:56:05.448Z,102709.50
2023-04-18T17:58:32.183Z,102706.53
2023-04-18T18:00:59.065Z,102703.81
2023-04-18T18:03:25.892Z,102707.25
2023-04-18T18:05:54.904Z,102707.56
2023-04-18T18:08:22.303Z,102700.94
2023-04-18T18:10:49.817Z,102708.88
2023-04-18T18:13:16.651Z,102704.84
2023-04-18T18:15:43.358Z,102701.50
2023-04-18T18:18:10.494Z,102713.66
2023-04-18T18:20:38.140Z,102717.47
2023-04-18T18:23:04.844Z,102717.31
2023-04-18T18:25:31.750Z,102722.25
2023-04-18T18:27:58.389Z,102722.66
2023-04-18T18:30:25.246Z,102725.84
2023-04-18T18:32:53.524Z,102723.22
2023-04-18T18:35:20.719Z,102731.38
2023-04-18T18:37:47.670Z,102722.44
2023-04-18T18:40:14.610Z,102732.53
2023-04-18T18:42:42.599Z,102730.97
2023-04-18T18:45:09.916Z,102717.84
2023-04-18T18:47:39.644Z,102740.81
2023-04-18T18:50:07.705Z,102739.75
2023-04-18T18:52:34.474Z,102737.50
2023-04-18T18:55:01.613Z,102743.38
2023-04-18T18:57:28.372Z,102744.41
2023-04-18T18:59:55.984Z,102754.03
2023-04-18T19:02:23.018Z,102744.66
2023-04-18T19:04:49.977Z,102753.34
2023-04-18T19:07:16.835Z,102758.09
2023-04-18T19:09:43.660Z,102749.78
2023-04-18T19:12:10.556Z,102754.25
2023-04-18T19:14:37.396Z,102757.06
2023-04-18T19:17:04.964Z,102758.38
2023-04-18T19:19:31.713Z,102763.16
2023-04-18T19:21:58.491Z,102767.47
2023-04-18T19:24:26.727Z,102764.03
2023-04-18T19:26:53.371Z,102764.03
2023-04-18T19:29:22.382Z,102781.47
2023-04-18T19:31:49.158Z,102764.28
2023-04-18T19:34:18.891Z,102778.00
2023-04-18T19:36:45.896Z,102772.75
2023-04-18T19:39:12.887Z,102779.28
2023-04-18T19:41:41.545Z,102784.44
2023-04-18T19:44:08.268Z,102786.25
2023-04-18T19:46:35.027Z,102788.22
2023-04-18T19:49:01.964Z,102789.31
2023-04-18T19:51:28.784Z,102785.25
2023-04-18T19:53:55.687Z,102788.63
2023-04-18T19:56:22.619Z,102788.63
2023-04-18T19:58:49.534Z,102784.63
2023-04-18T20:01:18.399Z,102783.75
2023-04-18T20:03:45.388Z,102797.31
2023-04-18T20:06:12.322Z,102790.34
2023-04-18T20:08:47.634Z,102787.38
2023-04-18T20:11:14.491Z,102793.81
2023-04-18T20:13:41.635Z,102794.19
2023-04-18T20:16:09.208Z,102793.63
2023-04-18T20:18:41.315Z,102798.41
2023-04-18T20:21:09.637Z,102799.75
2023-04-18T20:23:36.841Z,102799.22
2023-04-18T20:26:04.307Z,102796.59
2023-04-18T20:28:31.881Z,102801.41
2023-04-18T20:30:58.750Z,102790.09
2023-04-18T20:33:25.582Z,102800.84
2023-04-18T20:35:53.790Z,102800.59
2023-04-18T20:38:25.770Z,102801.00
2023-04-18T20:40:54.387Z,102803.44
2023-04-18T20:43:21.382Z,102805.13
2023-04-18T20:45:51.582Z,102806.72
2023-04-18T20:48:18.711Z,102811.97
2023-04-18T20:50:51.220Z,102806.94
2023-04-18T20:53:22.486Z,102817.44
2023-04-18T20:55:49.361Z,102809.44
2023-04-18T20:58:16.236Z,102806.66
2023-04-18T21:00:44.592Z,102807.31
2023-04-18T21:03:15.933Z,102810.44
2023-04-18T21:05:43.865Z,102816.72
2023-04-18T21:08:13.361Z,102817.00
2023-04-18T21:10:41.021Z,102818.38
2023-04-18T21:13:09.181Z,102811.47
2023-04-18T21:15:36.192Z,102814.41
2023-04-18T21:18:03.065Z,102815.38
2023-04-18T21:20:29.957Z,102821.50
2023-04-18T21:22:56.596Z,102821.06
2023-04-18T21:25:23.351Z,102821.00
2023-04-18T21:27:50.895Z,102824.56
2023-04-18T21:30:18.127Z,102832.56
2023-04-18T21:32:45.869Z,102830.47
2023-04-18T21:35:16.498Z,102826.72
2023-04-18T21:37:47.891Z,102828.19
2023-04-18T21:40:14.830Z,102835.38
2023-04-18T21:42:41.767Z,102834.44
2023-04-18T21:45:09.935Z,102832.06
2023-04-18T21:47:36.688Z,102829.47
2023-04-18T21:50:04.139Z,102829.47
2023-04-18T21:52:30.843Z,102829.09
2023-04-18T21:54:59.232Z,102832.66
2023-04-18T21:57:25.971Z,102828.75
2023-04-18T21:59:52.856Z,102830.50
2023-04-18T22:02:19.620Z,102828.16
2023-04-18T22:04:48.141Z,102832.91
2023-04-18T22:07:18.787Z,102833.44
2023-04-18T22:09:46.381Z,102835.09
2023-04-18T22:12:14.523Z,102836.78
2023-04-18T22:14:42.702Z,102834.28
2023-04-18T22:17:10.003Z,102846.22
2023-04-18T22:19:36.716Z,102838.19
2023-04-18T22:22:03.391Z,102845.28
2023-04-18T22:24:30.421Z,102838.09
2023-04-18T22:26:57.197Z,102839.53
2023-04-18T22:29:23.962Z,102841.28
2023-04-18T22:31:50.881Z,102841.38
2023-04-18T22:34:17.755Z,102842.41
2023-04-18T22:36:47.552Z,102839.78
2023-04-18T22:39:14.305Z,102843.47
2023-04-18T22:41:40.986Z,102835.59
2023-04-18T22:44:07.768Z,102844.81
2023-04-18T22:46:35.000Z,102845.81
2023-04-18T22:49:01.864Z,102846.78
2023-04-18T22:51:29.021Z,102841.47
2023-04-18T22:53:56.389Z,102846.94
2023-04-18T22:56:23.428Z,102849.81
2023-04-18T22:58:50.107Z,102845.59
2023-04-18T23:01:17.063Z,102852.72
2023-04-18T23:03:44.029Z,102855.25
2023-04-18T23:06:11.048Z,102855.44
2023-04-18T23:08:37.830Z,102862.31
2023-04-18T23:11:04.556Z,102860.22
2023-04-18T23:13:31.330Z,102856.91
2023-04-18T23:15:58.087Z,102859.22
2023-04-18T23:18:24.912Z,102856.13
2023-04-18T23:20:51.677Z,102861.53
2023-04-18T23:23:18.399Z,102855.84
2023-04-18T23:25:45.194Z,102857.78
2023-04-18T23:28:13.592Z,102863.34
2023-04-18T23:30:40.326Z,102865.31
2023-04-18T23:33:07.188Z,102862.91
2023-04-18T23:35:34.131Z,102872.84
2023-04-18T23:38:00.869Z,102872.09
2023-04-18T23:40:27.608Z,102868.69
2023-04-18T23:42:54.484Z,102868.88
2023-04-18T23:45:21.204Z,102874.13
2023-04-18T23:47:48.116Z,102866.63
2023-04-18T23:50:14.905Z,102876.59
2023-04-18T23:52:41.639Z,102880.34
2023-04-18T23:55:08.791Z,102880.53
2023-04-18T23:57:35.776Z,102880.09
